sensor_id;sensor_type;location;lat;lon;timestamp;temperature;humidity
69715;HTU21D;56981;53.532;49.398;2023-05-07T00:01:27;5.99;76.08
69715;HTU21D;56981;53.532;49.398;2023-05-07T00:03:53;5.94;75.92
69715;HTU21D;56981;53.532;49.398;2023-05-07T00:06:19;5.84;75.72
69715;HTU21D;56981;53.532;49.398;2023-05-07T00:08:45;5.80;75.68
69715;HTU21D;56981;53.532;49.398;2023-05-07T00:11:11;5.76;75.14
69715;HTU21D;56981;53.532;49.398;2023-05-07T00:13:37;5.65;76.09
69715;HTU21D;56981;53.532;49.398;2023-05-07T00:16:03;5.57;76.72
69715;HTU21D;56981;53.532;49.398;2023-05-07T00:18:30;5.53;76.21
69715;HTU21D;56981;53.532;49.398;2023-05-07T00:20:56;5.48;75.88
69715;HTU21D;56981;53.532;49.398;2023-05-07T00:23:22;5.40;75.47
69715;HTU21D;56981;53.532;49.398;2023-05-07T00:25:48;5.35;75.99
69715;HTU21D;56981;53.532;49.398;2023-05-07T00:28:14;5.32;75.50
69715;HTU21D;56981;53.532;49.398;2023-05-07T00:30:40;5.26;74.06
69715;HTU21D;56981;53.532;49.398;2023-05-07T00:33:06;5.26;74.60
69715;HTU21D;56981;53.532;49.398;2023-05-07T00:35:32;5.23;74.68
69715;HTU21D;56981;53.532;49.398;2023-05-07T00:37:58;5.21;75.56
69715;HTU21D;56981;53.532;49.398;2023-05-07T00:40:24;5.20;76.15
69715;HTU21D;56981;53.532;49.398;2023-05-07T00:42:50;5.20;76.85
69715;HTU21D;56981;53.532;49.398;2023-05-07T00:45:25;5.16;76.69
69715;HTU21D;56981;53.532;49.398;2023-05-07T00:47:53;5.10;77.44
69715;HTU21D;56981;53.532;49.398;2023-05-07T00:50:20;5.10;75.57
69715;HTU21D;56981;53.532;49.398;2023-05-07T00:52:46;5.10;78.25
69715;HTU21D;56981;53.532;49.398;2023-05-07T00:55:12;5.05;77.05
69715;HTU21D;56981;53.532;49.398;2023-05-07T00:57:41;5.02;77.11
69715;HTU21D;56981;53.532;49.398;2023-05-07T01:00:08;5.01;76.96
69715;HTU21D;56981;53.532;49.398;2023-05-07T01:02:35;5.00;76.76
69715;HTU21D;56981;53.532;49.398;2023-05-07T01:05:03;4.97;76.98
69715;HTU21D;56981;53.532;49.398;2023-05-07T01:07:32;4.98;76.80
69715;HTU21D;56981;53.532;49.398;2023-05-07T01:09:59;4.93;76.44
69715;HTU21D;56981;53.532;49.398;2023-05-07T01:12:26;4.91;76.70
69715;HTU21D;56981;53.532;49.398;2023-05-07T01:14:53;4.95;77.34
69715;HTU21D;56981;53.532;49.398;2023-05-07T01:17:20;4.95;76.62
69715;HTU21D;56981;53.532;49.398;2023-05-07T01:19:46;4.95;76.95
69715;HTU21D;56981;53.532;49.398;2023-05-07T01:22:15;4.93;76.17
69715;HTU21D;56981;53.532;49.398;2023-05-07T01:24:42;5.00;77.55
69715;HTU21D;56981;53.532;49.398;2023-05-07T01:27:08;5.02;76.19
69715;HTU21D;56981;53.532;49.398;2023-05-07T01:29:34;5.07;76.30
69715;HTU21D;56981;53.532;49.398;2023-05-07T01:32:02;5.21;75.80
69715;HTU21D;56981;53.532;49.398;2023-05-07T01:34:31;5.31;75.63
69715;HTU21D;56981;53.532;49.398;2023-05-07T01:36:58;6.28;72.66
69715;HTU21D;56981;53.532;49.398;2023-05-07T01:39:26;6.81;68.62
69715;HTU21D;56981;53.532;49.398;2023-05-07T01:41:57;7.69;64.54
69715;HTU21D;56981;53.532;49.398;2023-05-07T01:44:25;8.55;62.76
69715;HTU21D;56981;53.532;49.398;2023-05-07T01:46:52;9.25;59.73
69715;HTU21D;56981;53.532;49.398;2023-05-07T01:49:19;9.79;58.13
69715;HTU21D;56981;53.532;49.398;2023-05-07T01:51:45;10.14;56.28
69715;HTU21D;56981;53.532;49.398;2023-05-07T01:54:12;10.94;54.04
69715;HTU21D;56981;53.532;49.398;2023-05-07T01:56:38;11.41;52.07
69715;HTU21D;56981;53.532;49.398;2023-05-07T01:59:04;12.12;51.28
69715;HTU21D;56981;53.532;49.398;2023-05-07T02:01:30;12.56;49.40
69715;HTU21D;56981;53.532;49.398;2023-05-07T02:03:56;13.03;48.62
69715;HTU21D;56981;53.532;49.398;2023-05-07T02:06:22;13.67;46.54
69715;HTU21D;56981;53.532;49.398;2023-05-07T02:08:48;14.21;45.80
69715;HTU21D;56981;53.532;49.398;2023-05-07T02:11:14;14.63;44.38
69715;HTU21D;56981;53.532;49.398;2023-05-07T02:13:41;14.74;42.55
69715;HTU21D;56981;53.532;49.398;2023-05-07T02:16:07;15.23;42.03
69715;HTU21D;56981;53.532;49.398;2023-05-07T02:18:33;15.54;40.66
69715;HTU21D;56981;53.532;49.398;2023-05-07T02:20:59;15.58;41.56
69715;HTU21D;56981;53.532;49.398;2023-05-07T02:23:25;15.90;39.62
69715;HTU21D;56981;53.532;49.398;2023-05-07T02:25:51;16.31;40.13
69715;HTU21D;56981;53.532;49.398;2023-05-07T02:28:17;16.78;38.56
69715;HTU21D;56981;53.532;49.398;2023-05-07T02:30:43;16.95;36.54
69715;HTU21D;56981;53.532;49.398;2023-05-07T02:33:09;17.38;36.85
69715;HTU21D;56981;53.532;49.398;2023-05-07T02:35:37;17.75;36.32
69715;HTU21D;56981;53.532;49.398;2023-05-07T02:38:03;17.97;35.54
69715;HTU21D;56981;53.532;49.398;2023-05-07T02:40:29;18.18;35.48
69715;HTU21D;56981;53.532;49.398;2023-05-07T02:42:59;18.32;34.50
69715;HTU21D;56981;53.532;49.398;2023-05-07T02:45:25;18.33;34.71
69715;HTU21D;56981;53.532;49.398;2023-05-07T02:47:51;18.52;33.45
69715;HTU21D;56981;53.532;49.398;2023-05-07T02:50:17;19.13;32.89
69715;HTU21D;56981;53.532;49.398;2023-05-07T02:52:43;19.28;33.34
69715;HTU21D;56981;53.532;49.398;2023-05-07T02:55:09;19.06;32.65
69715;HTU21D;56981;53.532;49.398;2023-05-07T02:57:36;18.93;33.02
69715;HTU21D;56981;53.532;49.398;2023-05-07T03:02:38;19.72;32.57
69715;HTU21D;56981;53.532;49.398;2023-05-07T03:05:04;19.92;31.07
69715;HTU21D;56981;53.532;49.398;2023-05-07T03:07:31;19.97;31.30
69715;HTU21D;56981;53.532;49.398;2023-05-07T03:09:56;20.34;31.48
69715;HTU21D;56981;53.532;49.398;2023-05-07T03:12:22;20.46;31.03
69715;HTU21D;56981;53.532;49.398;2023-05-07T03:14:48;20.58;30.67
69715;HTU21D;56981;53.532;49.398;2023-05-07T03:17:14;20.83;29.79
69715;HTU21D;56981;53.532;49.398;2023-05-07T03:19:42;20.40;30.07
69715;HTU21D;56981;53.532;49.398;2023-05-07T03:22:08;20.54;29.16
69715;HTU21D;56981;53.532;49.398;2023-05-07T03:24:34;20.50;29.99
69715;HTU21D;56981;53.532;49.398;2023-05-07T03:27:00;20.42;30.41
69715;HTU21D;56981;53.532;49.398;2023-05-07T03:29:26;20.41;28.62
69715;HTU21D;56981;53.532;49.398;2023-05-07T03:31:52;20.61;28.00
69715;HTU21D;56981;53.532;49.398;2023-05-07T03:34:18;20.29;27.09
69715;HTU21D;56981;53.532;49.398;2023-05-07T03:36:48;19.95;28.73
69715;HTU21D;56981;53.532;49.398;2023-05-07T03:39:15;19.90;26.89
69715;HTU21D;56981;53.532;49.398;2023-05-07T03:41:41;20.07;27.78
69715;HTU21D;56981;53.532;49.398;2023-05-07T03:44:07;19.79;29.16
69715;HTU21D;56981;53.532;49.398;2023-05-07T03:46:33;19.74;29.49
69715;HTU21D;56981;53.532;49.398;2023-05-07T03:49:00;19.72;28.68
69715;HTU21D;56981;53.532;49.398;2023-05-07T03:51:26;19.81;28.82
69715;HTU21D;56981;53.532;49.398;2023-05-07T03:53:52;20.53;28.19
69715;HTU21D;56981;53.532;49.398;2023-05-07T03:56:19;20.06;28.47
69715;HTU21D;56981;53.532;49.398;2023-05-07T03:58:45;20.27;28.58
69715;HTU21D;56981;53.532;49.398;2023-05-07T04:01:11;20.28;28.85
69715;HTU21D;56981;53.532;49.398;2023-05-07T04:03:37;19.90;26.25
69715;HTU21D;56981;53.532;49.398;2023-05-07T04:06:03;20.20;26.84
69715;HTU21D;56981;53.532;49.398;2023-05-07T04:08:29;20.36;25.78
69715;HTU21D;56981;53.532;49.398;2023-05-07T04:10:57;20.61;25.62
69715;HTU21D;56981;53.532;49.398;2023-05-07T04:13:24;20.57;26.05
69715;HTU21D;56981;53.532;49.398;2023-05-07T04:15:51;20.58;25.07
69715;HTU21D;56981;53.532;49.398;2023-05-07T04:18:17;20.58;25.70
69715;HTU21D;56981;53.532;49.398;2023-05-07T04:20:43;20.56;25.33
69715;HTU21D;56981;53.532;49.398;2023-05-07T04:23:10;20.57;26.16
69715;HTU21D;56981;53.532;49.398;2023-05-07T04:25:36;20.54;25.98
69715;HTU21D;56981;53.532;49.398;2023-05-07T04:28:02;20.91;24.54
69715;HTU21D;56981;53.532;49.398;2023-05-07T04:30:28;20.66;26.43
69715;HTU21D;56981;53.532;49.398;2023-05-07T04:32:53;20.68;26.84
69715;HTU21D;56981;53.532;49.398;2023-05-07T04:35:20;20.49;26.94
69715;HTU21D;56981;53.532;49.398;2023-05-07T04:37:46;20.96;27.26
69715;HTU21D;56981;53.532;49.398;2023-05-07T04:40:12;20.99;28.35
69715;HTU21D;56981;53.532;49.398;2023-05-07T04:42:38;20.54;28.52
69715;HTU21D;56981;53.532;49.398;2023-05-07T04:45:04;20.53;27.71
69715;HTU21D;56981;53.532;49.398;2023-05-07T04:47:30;18.44;32.12
69715;HTU21D;56981;53.532;49.398;2023-05-07T04:49:57;17.90;33.47
69715;HTU21D;56981;53.532;49.398;2023-05-07T04:52:24;18.65;30.09
69715;HTU21D;56981;53.532;49.398;2023-05-07T04:54:50;19.02;27.68
69715;HTU21D;56981;53.532;49.398;2023-05-07T04:57:16;18.81;26.97
69715;HTU21D;56981;53.532;49.398;2023-05-07T04:59:43;19.31;28.19
69715;HTU21D;56981;53.532;49.398;2023-05-07T05:02:10;19.33;27.66
69715;HTU21D;56981;53.532;49.398;2023-05-07T05:04:36;19.56;26.71
69715;HTU21D;56981;53.532;49.398;2023-05-07T05:07:03;19.52;25.95
69715;HTU21D;56981;53.532;49.398;2023-05-07T05:09:31;19.36;26.49
69715;HTU21D;56981;53.532;49.398;2023-05-07T05:11:57;19.55;25.69
69715;HTU21D;56981;53.532;49.398;2023-05-07T05:14:23;19.29;25.80
69715;HTU21D;56981;53.532;49.398;2023-05-07T05:16:49;18.20;28.65
69715;HTU21D;56981;53.532;49.398;2023-05-07T05:19:16;18.35;28.36
69715;HTU21D;56981;53.532;49.398;2023-05-07T05:21:42;18.34;28.17
69715;HTU21D;56981;53.532;49.398;2023-05-07T05:24:08;18.94;27.97
69715;HTU21D;56981;53.532;49.398;2023-05-07T05:26:34;19.24;28.91
69715;HTU21D;56981;53.532;49.398;2023-05-07T05:29:00;19.83;26.09
69715;HTU21D;56981;53.532;49.398;2023-05-07T05:31:26;19.73;25.65
69715;HTU21D;56981;53.532;49.398;2023-05-07T05:33:52;20.06;24.42
69715;HTU21D;56981;53.532;49.398;2023-05-07T05:36:18;20.09;26.82
69715;HTU21D;56981;53.532;49.398;2023-05-07T05:38:44;19.74;27.16
69715;HTU21D;56981;53.532;49.398;2023-05-07T05:41:10;19.87;25.80
69715;HTU21D;56981;53.532;49.398;2023-05-07T05:43:36;19.99;26.30
69715;HTU21D;56981;53.532;49.398;2023-05-07T05:46:02;19.91;25.35
69715;HTU21D;56981;53.532;49.398;2023-05-07T05:48:30;19.40;26.18
69715;HTU21D;56981;53.532;49.398;2023-05-07T05:50:56;19.66;26.88
69715;HTU21D;56981;53.532;49.398;2023-05-07T05:53:22;20.12;27.22
69715;HTU21D;56981;53.532;49.398;2023-05-07T05:55:48;19.44;26.88
69715;HTU21D;56981;53.532;49.398;2023-05-07T05:58:14;19.37;26.48
69715;HTU21D;56981;53.532;49.398;2023-05-07T06:00:40;18.95;27.66
69715;HTU21D;56981;53.532;49.398;2023-05-07T06:03:07;19.18;25.71
69715;HTU21D;56981;53.532;49.398;2023-05-07T06:05:33;19.12;26.63
69715;HTU21D;56981;53.532;49.398;2023-05-07T06:07:59;19.66;25.06
69715;HTU21D;56981;53.532;49.398;2023-05-07T06:10:25;19.56;24.28
69715;HTU21D;56981;53.532;49.398;2023-05-07T06:12:52;20.02;23.15
69715;HTU21D;56981;53.532;49.398;2023-05-07T06:15:18;20.54;22.92
69715;HTU21D;56981;53.532;49.398;2023-05-07T06:17:45;19.87;23.80
69715;HTU21D;56981;53.532;49.398;2023-05-07T06:20:11;19.48;23.56
69715;HTU21D;56981;53.532;49.398;2023-05-07T06:22:37;19.46;23.73
69715;HTU21D;56981;53.532;49.398;2023-05-07T06:25:03;19.67;24.92
69715;HTU21D;56981;53.532;49.398;2023-05-07T06:27:29;19.67;26.42
69715;HTU21D;56981;53.532;49.398;2023-05-07T06:29:55;18.53;25.62
69715;HTU21D;56981;53.532;49.398;2023-05-07T06:32:21;17.46;26.56
69715;HTU21D;56981;53.532;49.398;2023-05-07T06:34:47;16.35;28.23
69715;HTU21D;56981;53.532;49.398;2023-05-07T06:37:13;16.64;28.16
69715;HTU21D;56981;53.532;49.398;2023-05-07T06:39:39;17.11;28.13
69715;HTU21D;56981;53.532;49.398;2023-05-07T06:42:05;17.69;26.03
69715;HTU21D;56981;53.532;49.398;2023-05-07T06:44:31;18.39;24.46
69715;HTU21D;56981;53.532;49.398;2023-05-07T06:46:57;18.74;22.67
69715;HTU21D;56981;53.532;49.398;2023-05-07T06:49:23;18.86;21.11
69715;HTU21D;56981;53.532;49.398;2023-05-07T06:51:49;18.77;22.73
69715;HTU21D;56981;53.532;49.398;2023-05-07T06:54:16;18.73;23.40
69715;HTU21D;56981;53.532;49.398;2023-05-07T06:56:42;18.72;22.79
69715;HTU21D;56981;53.532;49.398;2023-05-07T06:59:08;18.82;21.05
69715;HTU21D;56981;53.532;49.398;2023-05-07T07:01:34;18.63;19.88
69715;HTU21D;56981;53.532;49.398;2023-05-07T07:04:00;17.68;21.34
69715;HTU21D;56981;53.532;49.398;2023-05-07T07:06:26;17.99;20.70
69715;HTU21D;56981;53.532;49.398;2023-05-07T07:08:52;18.11;19.90
69715;HTU21D;56981;53.532;49.398;2023-05-07T07:11:18;18.08;18.70
69715;HTU21D;56981;53.532;49.398;2023-05-07T07:13:44;18.32;20.83
69715;HTU21D;56981;53.532;49.398;2023-05-07T07:16:10;18.09;21.94
69715;HTU21D;56981;53.532;49.398;2023-05-07T07:18:37;17.47;21.84
69715;HTU21D;56981;53.532;49.398;2023-05-07T07:21:03;17.85;21.79
69715;HTU21D;56981;53.532;49.398;2023-05-07T07:23:29;17.97;22.18
69715;HTU21D;56981;53.532;49.398;2023-05-07T07:25:55;18.66;23.89
69715;HTU21D;56981;53.532;49.398;2023-05-07T07:28:21;18.58;21.32
69715;HTU21D;56981;53.532;49.398;2023-05-07T07:30:48;17.68;22.23
69715;HTU21D;56981;53.532;49.398;2023-05-07T07:33:14;17.64;23.26
69715;HTU21D;56981;53.532;49.398;2023-05-07T07:35:40;17.64;23.77
69715;HTU21D;56981;53.532;49.398;2023-05-07T07:38:06;17.28;22.76
69715;HTU21D;56981;53.532;49.398;2023-05-07T07:40:34;17.46;24.05
69715;HTU21D;56981;53.532;49.398;2023-05-07T07:43:00;17.48;25.27
69715;HTU21D;56981;53.532;49.398;2023-05-07T07:45:27;17.30;22.50
69715;HTU21D;56981;53.532;49.398;2023-05-07T07:47:53;17.45;23.34
69715;HTU21D;56981;53.532;49.398;2023-05-07T07:50:19;17.29;22.11
69715;HTU21D;56981;53.532;49.398;2023-05-07T07:52:45;16.70;25.20
69715;HTU21D;56981;53.532;49.398;2023-05-07T07:55:11;17.13;23.66
69715;HTU21D;56981;53.532;49.398;2023-05-07T07:57:37;17.23;24.43
69715;HTU21D;56981;53.532;49.398;2023-05-07T08:00:05;16.43;24.49
69715;HTU21D;56981;53.532;49.398;2023-05-07T08:02:32;15.83;26.78
69715;HTU21D;56981;53.532;49.398;2023-05-07T08:04:58;16.02;26.78
69715;HTU21D;56981;53.532;49.398;2023-05-07T08:07:24;16.61;25.46
69715;HTU21D;56981;53.532;49.398;2023-05-07T08:09:51;16.82;24.72
69715;HTU21D;56981;53.532;49.398;2023-05-07T08:12:17;16.69;24.98
69715;HTU21D;56981;53.532;49.398;2023-05-07T08:14:43;16.54;23.97
69715;HTU21D;56981;53.532;49.398;2023-05-07T08:17:09;16.12;26.08
69715;HTU21D;56981;53.532;49.398;2023-05-07T08:19:36;15.47;25.47
69715;HTU21D;56981;53.532;49.398;2023-05-07T08:22:03;15.69;28.70
69715;HTU21D;56981;53.532;49.398;2023-05-07T08:24:30;16.24;26.14
69715;HTU21D;56981;53.532;49.398;2023-05-07T08:26:56;16.33;25.67
69715;HTU21D;56981;53.532;49.398;2023-05-07T08:29:22;16.31;25.97
69715;HTU21D;56981;53.532;49.398;2023-05-07T08:31:48;16.54;26.34
69715;HTU21D;56981;53.532;49.398;2023-05-07T08:34:14;15.98;26.49
69715;HTU21D;56981;53.532;49.398;2023-05-07T08:36:40;15.07;26.46
69715;HTU21D;56981;53.532;49.398;2023-05-07T08:39:07;14.73;28.26
69715;HTU21D;56981;53.532;49.398;2023-05-07T08:41:34;15.21;27.99
69715;HTU21D;56981;53.532;49.398;2023-05-07T08:44:02;14.70;29.86
69715;HTU21D;56981;53.532;49.398;2023-05-07T08:46:31;14.51;29.80
69715;HTU21D;56981;53.532;49.398;2023-05-07T08:48:58;14.55;28.90
69715;HTU21D;56981;53.532;49.398;2023-05-07T08:51:24;15.11;27.67
69715;HTU21D;56981;53.532;49.398;2023-05-07T08:53:50;14.63;28.24
69715;HTU21D;56981;53.532;49.398;2023-05-07T08:56:16;14.29;30.43
69715;HTU21D;56981;53.532;49.398;2023-05-07T08:58:43;13.88;29.59
69715;HTU21D;56981;53.532;49.398;2023-05-07T09:01:15;13.95;29.02
69715;HTU21D;56981;53.532;49.398;2023-05-07T09:03:44;14.34;30.73
69715;HTU21D;56981;53.532;49.398;2023-05-07T09:06:10;14.69;30.06
69715;HTU21D;56981;53.532;49.398;2023-05-07T09:08:37;14.77;29.58
69715;HTU21D;56981;53.532;49.398;2023-05-07T09:11:03;14.29;28.52
69715;HTU21D;56981;53.532;49.398;2023-05-07T09:13:29;13.68;31.24
69715;HTU21D;56981;53.532;49.398;2023-05-07T09:15:55;13.54;30.21
69715;HTU21D;56981;53.532;49.398;2023-05-07T09:18:25;13.94;32.14
69715;HTU21D;56981;53.532;49.398;2023-05-07T09:20:51;13.76;31.89
69715;HTU21D;56981;53.532;49.398;2023-05-07T09:23:17;13.77;31.10
69715;HTU21D;56981;53.532;49.398;2023-05-07T09:25:43;13.68;29.38
69715;HTU21D;56981;53.532;49.398;2023-05-07T09:28:09;13.74;32.58
69715;HTU21D;56981;53.532;49.398;2023-05-07T09:30:36;13.76;31.00
69715;HTU21D;56981;53.532;49.398;2023-05-07T09:33:03;13.39;31.02
69715;HTU21D;56981;53.532;49.398;2023-05-07T09:35:30;13.35;31.12
69715;HTU21D;56981;53.532;49.398;2023-05-07T09:37:58;13.09;32.54
69715;HTU21D;56981;53.532;49.398;2023-05-07T09:40:29;13.37;33.73
69715;HTU21D;56981;53.532;49.398;2023-05-07T09:42:55;13.24;35.10
69715;HTU21D;56981;53.532;49.398;2023-05-07T09:45:28;13.26;33.22
69715;HTU21D;56981;53.532;49.398;2023-05-07T09:47:56;13.09;33.05
69715;HTU21D;56981;53.532;49.398;2023-05-07T09:50:29;13.10;31.64
69715;HTU21D;56981;53.532;49.398;2023-05-07T09:52:56;13.22;31.85
69715;HTU21D;56981;53.532;49.398;2023-05-07T09:55:23;12.95;28.81
69715;HTU21D;56981;53.532;49.398;2023-05-07T09:57:51;12.81;30.82
69715;HTU21D;56981;53.532;49.398;2023-05-07T10:00:21;13.24;33.31
69715;HTU21D;56981;53.532;49.398;2023-05-07T10:02:50;13.59;29.93
69715;HTU21D;56981;53.532;49.398;2023-05-07T10:05:21;13.23;31.13
69715;HTU21D;56981;53.532;49.398;2023-05-07T10:07:48;13.06;31.03
69715;HTU21D;56981;53.532;49.398;2023-05-07T10:10:14;13.12;31.22
69715;HTU21D;56981;53.532;49.398;2023-05-07T10:12:43;13.32;30.90
69715;HTU21D;56981;53.532;49.398;2023-05-07T10:15:11;13.53;30.58
69715;HTU21D;56981;53.532;49.398;2023-05-07T10:17:38;13.50;29.18
69715;HTU21D;56981;53.532;49.398;2023-05-07T10:20:06;13.22;29.67
69715;HTU21D;56981;53.532;49.398;2023-05-07T10:22:41;13.16;29.85
69715;HTU21D;56981;53.532;49.398;2023-05-07T10:25:44;13.35;32.15
69715;HTU21D;56981;53.532;49.398;2023-05-07T10:28:11;13.23;30.67
69715;HTU21D;56981;53.532;49.398;2023-05-07T10:33:23;13.03;31.40
69715;HTU21D;56981;53.532;49.398;2023-05-07T10:35:58;13.02;30.37
69715;HTU21D;56981;53.532;49.398;2023-05-07T10:38:27;13.16;30.27
69715;HTU21D;56981;53.532;49.398;2023-05-07T10:40:53;13.29;30.48
69715;HTU21D;56981;53.532;49.398;2023-05-07T10:43:19;13.61;29.33
69715;HTU21D;56981;53.532;49.398;2023-05-07T10:46:20;13.56;29.06
69715;HTU21D;56981;53.532;49.398;2023-05-07T10:51:34;13.48;28.96
69715;HTU21D;56981;53.532;49.398;2023-05-07T10:56:42;13.15;31.03
69715;HTU21D;56981;53.532;49.398;2023-05-07T11:01:55;12.93;31.05
69715;HTU21D;56981;53.532;49.398;2023-05-07T11:04:21;12.96;30.29
69715;HTU21D;56981;53.532;49.398;2023-05-07T11:13:02;12.75;30.50
69715;HTU21D;56981;53.532;49.398;2023-05-07T11:15:11;12.95;29.22
69715;HTU21D;56981;53.532;49.398;2023-05-07T11:17:57;12.90;30.31
69715;HTU21D;56981;53.532;49.398;2023-05-07T11:26:04;13.04;29.79
69715;HTU21D;56981;53.532;49.398;2023-05-07T11:28:31;12.89;30.68
69715;HTU21D;56981;53.532;49.398;2023-05-07T11:30:57;12.80;29.42
69715;HTU21D;56981;53.532;49.398;2023-05-07T11:33:23;12.76;29.57
69715;HTU21D;56981;53.532;49.398;2023-05-07T11:35:56;12.80;29.87
69715;HTU21D;56981;53.532;49.398;2023-05-07T11:38:22;12.75;32.04
69715;HTU21D;56981;53.532;49.398;2023-05-07T11:40:52;12.85;29.83
69715;HTU21D;56981;53.532;49.398;2023-05-07T11:43:18;13.06;31.44
69715;HTU21D;56981;53.532;49.398;2023-05-07T11:45:46;13.05;29.80
69715;HTU21D;56981;53.532;49.398;2023-05-07T11:48:13;12.97;28.78
69715;HTU21D;56981;53.532;49.398;2023-05-07T11:50:50;13.20;30.83
69715;HTU21D;56981;53.532;49.398;2023-05-07T11:53:17;13.22;28.11
69715;HTU21D;56981;53.532;49.398;2023-05-07T11:55:44;13.34;28.50
69715;HTU21D;56981;53.532;49.398;2023-05-07T11:58:12;13.18;29.55
69715;HTU21D;56981;53.532;49.398;2023-05-07T12:00:38;13.07;27.52
69715;HTU21D;56981;53.532;49.398;2023-05-07T12:03:05;12.89;29.11
69715;HTU21D;56981;53.532;49.398;2023-05-07T12:05:31;12.63;28.81
69715;HTU21D;56981;53.532;49.398;2023-05-07T12:07:57;12.43;29.81
69715;HTU21D;56981;53.532;49.398;2023-05-07T12:10:23;12.61;29.61
69715;HTU21D;56981;53.532;49.398;2023-05-07T12:12:50;12.69;29.64
69715;HTU21D;56981;53.532;49.398;2023-05-07T12:15:17;12.75;29.93
69715;HTU21D;56981;53.532;49.398;2023-05-07T12:17:43;12.88;29.71
69715;HTU21D;56981;53.532;49.398;2023-05-07T12:20:10;12.85;30.38
69715;HTU21D;56981;53.532;49.398;2023-05-07T12:22:36;12.66;30.55
69715;HTU21D;56981;53.532;49.398;2023-05-07T12:25:03;12.62;31.51
69715;HTU21D;56981;53.532;49.398;2023-05-07T12:27:31;12.65;31.77
69715;HTU21D;56981;53.532;49.398;2023-05-07T12:29:58;12.72;30.45
69715;HTU21D;56981;53.532;49.398;2023-05-07T12:32:26;12.46;29.87
69715;HTU21D;56981;53.532;49.398;2023-05-07T12:34:52;12.40;29.13
69715;HTU21D;56981;53.532;49.398;2023-05-07T12:37:23;12.34;30.54
69715;HTU21D;56981;53.532;49.398;2023-05-07T12:40:12;12.52;30.87
69715;HTU21D;56981;53.532;49.398;2023-05-07T12:42:40;12.81;30.68
69715;HTU21D;56981;53.532;49.398;2023-05-07T12:45:10;12.78;31.30
69715;HTU21D;56981;53.532;49.398;2023-05-07T12:47:36;12.64;29.55
69715;HTU21D;56981;53.532;49.398;2023-05-07T12:50:05;12.51;29.55
69715;HTU21D;56981;53.532;49.398;2023-05-07T12:52:33;12.45;30.55
69715;HTU21D;56981;53.532;49.398;2023-05-07T12:55:05;12.50;31.46
69715;HTU21D;56981;53.532;49.398;2023-05-07T12:57:38;12.47;30.22
69715;HTU21D;56981;53.532;49.398;2023-05-07T13:00:06;12.42;30.39
69715;HTU21D;56981;53.532;49.398;2023-05-07T13:02:33;12.46;32.02
69715;HTU21D;56981;53.532;49.398;2023-05-07T13:05:00;12.47;31.69
69715;HTU21D;56981;53.532;49.398;2023-05-07T13:07:26;12.67;32.67
69715;HTU21D;56981;53.532;49.398;2023-05-07T13:09:52;12.84;29.51
69715;HTU21D;56981;53.532;49.398;2023-05-07T13:12:18;12.60;29.78
69715;HTU21D;56981;53.532;49.398;2023-05-07T13:14:44;12.53;29.19
69715;HTU21D;56981;53.532;49.398;2023-05-07T13:17:10;12.45;31.57
69715;HTU21D;56981;53.532;49.398;2023-05-07T13:19:37;12.52;32.29
69715;HTU21D;56981;53.532;49.398;2023-05-07T13:22:03;12.45;29.51
69715;HTU21D;56981;53.532;49.398;2023-05-07T13:24:29;12.36;30.30
69715;HTU21D;56981;53.532;49.398;2023-05-07T13:26:57;12.37;30.19
69715;HTU21D;56981;53.532;49.398;2023-05-07T13:29:23;12.44;29.87
69715;HTU21D;56981;53.532;49.398;2023-05-07T13:31:58;12.38;31.15
69715;HTU21D;56981;53.532;49.398;2023-05-07T13:34:25;12.42;31.12
69715;HTU21D;56981;53.532;49.398;2023-05-07T13:36:51;12.45;31.90
69715;HTU21D;56981;53.532;49.398;2023-05-07T13:39:17;12.29;30.80
69715;HTU21D;56981;53.532;49.398;2023-05-07T13:41:43;12.17;30.44
69715;HTU21D;56981;53.532;49.398;2023-05-07T13:44:09;12.02;31.88
69715;HTU21D;56981;53.532;49.398;2023-05-07T13:46:35;12.00;32.80
69715;HTU21D;56981;53.532;49.398;2023-05-07T13:49:02;11.94;32.28
69715;HTU21D;56981;53.532;49.398;2023-05-07T13:51:28;11.96;31.58
69715;HTU21D;56981;53.532;49.398;2023-05-07T13:53:54;11.97;31.63
69715;HTU21D;56981;53.532;49.398;2023-05-07T13:56:20;11.99;32.31
69715;HTU21D;56981;53.532;49.398;2023-05-07T13:58:46;12.04;32.43
69715;HTU21D;56981;53.532;49.398;2023-05-07T14:01:13;11.99;32.08
69715;HTU21D;56981;53.532;49.398;2023-05-07T14:03:39;11.83;32.47
69715;HTU21D;56981;53.532;49.398;2023-05-07T14:06:05;11.94;32.78
69715;HTU21D;56981;53.532;49.398;2023-05-07T14:08:31;11.90;32.15
69715;HTU21D;56981;53.532;49.398;2023-05-07T14:10:57;11.89;32.80
69715;HTU21D;56981;53.532;49.398;2023-05-07T14:13:23;11.88;31.65
69715;HTU21D;56981;53.532;49.398;2023-05-07T14:15:49;11.70;31.77
69715;HTU21D;56981;53.532;49.398;2023-05-07T14:18:16;11.64;32.89
69715;HTU21D;56981;53.532;49.398;2023-05-07T14:20:42;11.49;33.47
69715;HTU21D;56981;53.532;49.398;2023-05-07T14:23:12;11.45;33.70
69715;HTU21D;56981;53.532;49.398;2023-05-07T14:25:38;11.48;34.31
69715;HTU21D;56981;53.532;49.398;2023-05-07T14:28:04;11.39;32.12
69715;HTU21D;56981;53.532;49.398;2023-05-07T14:30:30;11.30;33.97
69715;HTU21D;56981;53.532;49.398;2023-05-07T14:32:56;11.22;32.90
69715;HTU21D;56981;53.532;49.398;2023-05-07T14:35:22;11.07;32.96
69715;HTU21D;56981;53.532;49.398;2023-05-07T14:37:48;10.90;33.57
69715;HTU21D;56981;53.532;49.398;2023-05-07T14:40:14;10.79;32.95
69715;HTU21D;56981;53.532;49.398;2023-05-07T14:42:40;10.70;34.94
69715;HTU21D;56981;53.532;49.398;2023-05-07T14:45:07;10.68;34.84
69715;HTU21D;56981;53.532;49.398;2023-05-07T14:47:33;10.68;34.30
69715;HTU21D;56981;53.532;49.398;2023-05-07T14:49:59;10.67;35.46
69715;HTU21D;56981;53.532;49.398;2023-05-07T14:52:26;10.70;35.01
69715;HTU21D;56981;53.532;49.398;2023-05-07T14:54:53;10.75;35.24
69715;HTU21D;56981;53.532;49.398;2023-05-07T14:57:19;10.70;34.91
69715;HTU21D;56981;53.532;49.398;2023-05-07T14:59:45;10.73;36.14
69715;HTU21D;56981;53.532;49.398;2023-05-07T15:02:13;10.69;35.68
69715;HTU21D;56981;53.532;49.398;2023-05-07T15:04:39;10.65;35.31
69715;HTU21D;56981;53.532;49.398;2023-05-07T15:07:12;10.59;35.08
69715;HTU21D;56981;53.532;49.398;2023-05-07T15:09:44;10.64;34.92
69715;HTU21D;56981;53.532;49.398;2023-05-07T15:12:11;10.67;34.21
69715;HTU21D;56981;53.532;49.398;2023-05-07T15:14:41;10.55;34.66
69715;HTU21D;56981;53.532;49.398;2023-05-07T15:17:07;10.51;33.57
69715;HTU21D;56981;53.532;49.398;2023-05-07T15:19:33;10.51;35.49
69715;HTU21D;56981;53.532;49.398;2023-05-07T15:22:00;10.44;34.95
69715;HTU21D;56981;53.532;49.398;2023-05-07T15:24:29;10.44;35.66
69715;HTU21D;56981;53.532;49.398;2023-05-07T15:26:55;10.38;34.35